LSZH/ZRH METAR and TAF weather

Enter ICAO airport designator
Station Type Date Time Source
LSZH METAR 2019/12/06 08:50 UTC NOAA

LSZH 060850Z 18007KT 6000 SCT004 M00/M02 Q1023 TEMPO BKN004


Station Type Date Time Source
LSZH Decoded METAR 2019/12/06 08:50 UTC NOAA

Zurich-Kloten, Switzerland (LSZH) 47-29N 008-32E 432M
Dec 06, 2019 - 03:50 AM EST / 2019.12.06 0850 UTC
Wind: from the S (180 degrees) at 8 MPH (7 KT):0
Visibility: 3 mile(s):0
Sky conditions: partly cloudy
Temperature: 32 F (0 C)
Windchill: 24 F (-4 C):1
Dew Point: 28 F (-2 C)
Relative Humidity: 86%
Pressure (altimeter): 30.21 in. Hg (1023 hPa)
ob: LSZH 060850Z 18007KT 6000 SCT004 M00/M02 Q1023 TEMPO BKN004
cycle: 9

Station Type Date Time Source
LSZH TAF 2019/12/06 09:35 UTC NOAA

TAF LSZH 060825Z 0609/0715 22007KT 6000 SCT003 SCT006 TX06/0614Z TN04/0701Z TX09/0713Z
BECMG 0610/0613 CAVOK
BECMG 0620/0623 9999 BKN060 PROB30
TEMPO 0623/0710 RA

Example: see airport list